Time;durP1;ratioP1;P1;durP2;ratioP2;P2;SDS_P1;SDS_P2;PMS_P1;PMS_P2;Temp;Humidity;BMP_temperature;BMP_pressure;BME280_temperature;BME280_humidity;BME280_pressure;Samples;Min_cycle;Max_cycle;Signal;HPM_P1;HPM_P2
2022/02/04 00:05:21;;;;;;;11.75;7.15;;;;;;;6.99;82.13;100239.84;6305882;22;20443;-89
2022/02/04 00:28:04;;;;;;;10.73;7.35;;;;;;;6.89;82.66;100239.31;6305551;22;20034;-89
2022/02/04 00:30:38;;;;;;;11.13;7.35;;;;;;;6.68;82.84;100209.31;6286126;22;20646;-90
2022/02/04 00:33:25;;;;;;;10.45;7.18;;;;;;;6.88;82.60;100248.13;6309759;22;20512;-90
2022/02/04 00:35:58;;;;;;;10.93;7.15;;;;;;;6.62;82.26;100201.63;6312507;22;20041;-90
2022/02/04 00:38:32;;;;;;;11.40;7.07;;;;;;;6.53;82.48;100180.91;6305164;22;20023;-89
2022/02/04 00:41:05;;;;;;;9.85;6.88;;;;;;;6.57;82.79;100189.56;6303679;22;20069;-88
2022/02/04 00:43:32;;;;;;;9.70;6.55;;;;;;;6.84;82.74;100224.59;6303489;22;20348;-88
2022/02/04 00:49:03;;;;;;;8.57;5.78;;;;;;;6.78;82.51;100230.91;6302023;22;20027;-90
2022/02/04 00:51:44;;;;;;;9.23;6.68;;;;;;;6.84;82.57;100246.50;6304839;22;20512;-90
2022/02/04 01:26:45;;;;;;;8.75;6.00;;;;;;;6.80;81.92;100239.63;6335645;22;20090;-91
2022/02/04 01:29:14;;;;;;;10.35;6.88;;;;;;;6.89;81.59;100241.97;6334127;22;20046;-88
2022/02/04 01:31:41;;;;;;;8.07;5.85;;;;;;;6.79;81.41;100235.25;6308531;22;20019;-89
2022/02/04 01:34:09;;;;;;;9.00;5.65;;;;;;;6.84;81.69;100250.91;6336214;22;20011;-88
2022/02/04 01:36:41;;;;;;;9.48;6.10;;;;;;;6.52;82.08;100207.25;6336877;22;20023;-88
2022/02/04 01:39:09;;;;;;;9.35;6.30;;;;;;;6.76;81.96;100234.53;6336872;22;20053;-88
2022/02/04 01:41:40;;;;;;;10.52;6.13;;;;;;;6.45;82.03;100184.72;6337871;22;20018;-89
2022/02/04 01:44:26;;;;;;;8.82;6.25;;;;;;;6.82;82.31;100250.97;6338398;22;20494;-87
2022/02/04 01:47:00;;;;;;;8.55;6.40;;;;;;;6.79;82.57;100252.81;6338768;22;20025;-89
2022/02/04 01:49:34;;;;;;;9.07;6.10;;;;;;;6.53;82.69;100216.88;6337931;22;20021;-88
2022/02/04 01:52:04;;;;;;;9.40;6.53;;;;;;;6.44;82.48;100201.41;6336051;22;20023;-90
2022/02/04 01:54:33;;;;;;;10.82;6.82;;;;;;;6.55;82.16;100208.03;6335901;22;20465;-88
2022/02/04 01:57:01;;;;;;;9.43;6.75;;;;;;;6.66;82.70;100232.19;6336023;22;20027;-89
2022/02/04 01:59:31;;;;;;;10.52;6.75;;;;;;;6.69;82.42;100229.47;6336073;22;20019;-89
2022/02/04 02:02:01;;;;;;;8.73;6.85;;;;;;;6.69;82.86;100232.09;6338300;22;20045;-90
2022/02/04 02:04:28;;;;;;;10.77;6.85;;;;;;;6.56;82.35;100220.28;6338443;22;20372;-89
2022/02/04 02:06:58;;;;;;;8.82;6.13;;;;;;;6.57;82.55;100218.50;6336653;22;20041;-88
2022/02/04 02:09:33;;;;;;;8.73;6.65;;;;;;;6.58;82.87;100223.72;6309331;22;20022;-90
2022/02/04 02:12:05;;;;;;;8.73;6.00;;;;;;;6.63;83.30;100220.91;6335055;22;20034;-89
2022/02/04 02:14:33;;;;;;;9.52;6.60;;;;;;;6.51;82.38;100185.34;6334976;22;20080;-89
2022/02/04 02:33:10;;;;;;;8.10;5.53;;;;;;;6.81;82.25;100251.00;6335446;22;20080;-89
2022/02/04 02:43:18;;;;;;;7.72;5.50;;;;;;;6.43;82.70;100190.03;6333671;22;20025;-88
2022/02/04 02:59:51;;;;;;;8.55;6.13;;;;;;;6.68;82.79;100209.31;6333483;22;20427;-88
2022/02/04 03:02:19;;;;;;;7.25;5.20;;;;;;;6.56;82.21;100193.97;6334143;22;20327;-89
2022/02/04 03:04:47;;;;;;;8.93;6.00;;;;;;;6.56;82.70;100204.47;6336247;22;20019;-88
2022/02/04 03:07:15;;;;;;;9.18;5.82;;;;;;;6.58;83.29;100210.56;6308397;22;20057;-89
2022/02/04 03:09:42;;;;;;;9.07;5.78;;;;;;;6.49;82.96;100189.81;6334481;22;20011;-88
2022/02/04 03:12:09;;;;;;;6.72;4.90;;;;;;;6.53;83.30;100199.31;6335212;22;20011;-89
2022/02/04 03:14:37;;;;;;;7.53;5.10;;;;;;;6.48;83.51;100189.84;6335673;22;20031;-89
2022/02/04 03:17:08;;;;;;;7.32;5.28;;;;;;;6.62;83.42;100209.53;6336270;22;20014;-90
2022/02/04 03:19:38;;;;;;;7.82;4.70;;;;;;;6.48;83.63;100188.09;6334387;22;20018;-89
2022/02/04 03:22:12;;;;;;;7.43;5.03;;;;;;;6.51;83.40;100185.34;6311694;22;20460;-90
2022/02/04 03:24:42;;;;;;;6.47;4.70;;;;;;;6.41;83.15;100165.53;6338816;22;20010;-89
2022/02/04 03:27:12;;;;;;;7.50;4.95;;;;;;;6.57;83.64;100202.72;6340589;22;20011;-88
2022/02/04 03:30:06;;;;;;;7.78;5.38;;;;;;;6.56;83.51;100219.41;6334565;22;20011;-89
2022/02/04 03:32:36;;;;;;;6.28;4.63;;;;;;;6.71;83.51;100239.09;6343524;22;20046;-91
2022/02/04 03:35:03;;;;;;;7.15;4.63;;;;;;;6.49;83.52;100208.22;6345446;22;20019;-88
2022/02/04 03:37:33;;;;;;;6.57;4.57;;;;;;;6.49;83.82;100210.84;6347507;22;20015;-89
2022/02/04 03:40:07;;;;;;;8.02;4.70;;;;;;;6.72;83.68;100246.94;6351913;22;20015;-89
2022/02/04 03:42:34;;;;;;;6.78;4.88;;;;;;;6.58;83.89;100226.34;6331987;22;20015;-89
2022/02/04 03:45:01;;;;;;;6.85;5.15;;;;;;;6.44;84.31;100210.16;6358426;22;20019;-90
2022/02/04 03:47:30;;;;;;;6.53;4.60;;;;;;;6.72;83.80;100248.69;6339515;22;20102;-88
2022/02/04 03:50:00;;;;;;;7.20;4.50;;;;;;;6.40;84.31;100203.28;6337469;22;20019;-91
2022/02/04 03:52:28;;;;;;;7.00;4.47;;;;;;;6.78;83.79;100249.34;6323862;22;20369;-89
2022/02/04 03:54:55;;;;;;;6.55;4.65;;;;;;;6.46;83.58;100202.19;6310687;22;20033;-89
2022/02/04 03:57:23;;;;;;;8.73;4.90;;;;;;;6.66;84.15;100233.97;6339081;22;20030;-87
2022/02/04 03:59:50;;;;;;;8.68;5.28;;;;;;;6.62;84.16;100227.06;6309116;22;20019;-88
2022/02/04 04:02:17;;;;;;;7.40;5.38;;;;;;;6.78;84.15;100246.69;6341534;22;20019;-87
2022/02/04 04:04:44;;;;;;;9.43;5.10;;;;;;;6.71;83.78;100234.69;6341474;22;20030;-89
2022/02/04 04:07:12;;;;;;;6.80;4.72;;;;;;;6.68;84.09;100230.38;6339511;22;20026;-88
2022/02/04 04:09:45;;;;;;;9.10;5.20;;;;;;;6.71;84.23;100239.09;6336511;22;20030;-89
2022/02/04 04:12:14;;;;;;;7.72;5.85;;;;;;;6.60;84.54;100226.28;6336887;22;20268;-89
2022/02/04 04:14:41;;;;;;;7.10;5.50;;;;;;;6.34;84.66;100185.06;6341723;22;20015;-88
2022/02/04 04:17:08;;;;;;;8.25;5.90;;;;;;;6.56;84.39;100217.63;6340334;22;20022;-89
2022/02/04 04:19:35;;;;;;;8.65;5.90;;;;;;;6.62;84.87;100227.94;6339747;22;20037;-89
2022/02/04 04:22:04;;;;;;;9.00;6.03;;;;;;;6.43;84.68;100195.28;6337680;22;20068;-89
2022/02/04 04:24:33;;;;;;;8.13;5.60;;;;;;;6.56;84.65;100225.53;6310606;22;20076;-88
2022/02/04 04:27:00;;;;;;;7.68;5.57;;;;;;;6.51;85.26;100232.69;6335963;22;20015;-88
2022/02/04 04:29:28;;;;;;;7.78;5.80;;;;;;;6.61;85.40;100234.09;6336264;22;20026;-88
2022/02/04 04:31:57;;;;;;;8.20;5.65;;;;;;;6.42;85.01;100190.94;6340524;22;20014;-88
2022/02/04 04:34:23;;;;;;;11.30;6.22;;;;;;;6.73;85.19;100255.69;6340804;22;20015;-89
2022/02/04 04:36:52;;;;;;;9.32;6.35;;;;;;;6.46;86.02;100224.09;6337656;22;20014;-88
2022/02/04 04:39:23;;;;;;;8.55;6.18;;;;;;;6.45;86.15;100222.41;6332762;22;20094;-89
2022/02/04 04:42:10;;;;;;;10.75;6.90;;;;;;;6.42;85.74;100201.47;6333379;22;20015;-89
2022/02/04 05:29:14;;;;;;;9.63;7.03;;;;;;;6.71;87.20;100252.25;6344441;22;20118;-90
2022/02/04 05:31:43;;;;;;;12.95;7.97;;;;;;;6.69;86.94;100247.88;6349485;22;20015;-89
2022/02/04 05:34:16;;;;;;;9.65;6.82;;;;;;;6.66;87.36;100247.97;6343312;22;20035;-88
2022/02/04 05:36:58;;;;;;;9.93;7.10;;;;;;;6.65;87.17;100253.28;6316178;22;20392;-89
2022/02/04 05:39:52;;;;;;;13.75;7.53;;;;;;;6.46;87.68;100226.72;6333273;22;20019;-91
2022/02/04 05:42:50;;;;;;;9.90;7.07;;;;;;;6.47;88.07;100231.06;6315512;22;20075;-92
2022/02/04 05:45:33;;;;;;;11.93;7.72;;;;;;;6.63;87.83;100263.88;6337416;22;20079;-91
2022/02/04 05:48:05;;;;;;;11.57;7.72;;;;;;;6.26;87.91;100209.00;6335803;22;20291;-90
2022/02/04 05:58:31;;;;;;;11.40;7.78;;;;;;;6.27;89.83;100220.38;6335614;22;20038;-90
2022/02/04 06:04:18;;;;;;;13.05;8.32;;;;;;;6.16;90.92;100183.03;6302789;22;20597;-90
2022/02/04 06:09:55;;;;;;;11.98;8.02;;;;;;;6.14;91.64;100216.41;6303067;22;20019;-89
2022/02/04 06:23:41;;;;;;;12.95;8.98;;;;;;;6.07;92.09;100191.22;6304115;22;20450;-89
2022/02/04 06:26:10;;;;;;;14.43;9.32;;;;;;;6.25;92.45;100219.56;6301226;22;20019;-89
2022/02/04 06:28:41;;;;;;;13.85;9.93;;;;;;;6.22;92.37;100217.88;6303263;22;20018;-90
2022/02/04 06:31:08;;;;;;;15.82;9.80;;;;;;;6.35;92.86;100242.00;6301735;22;20069;-90
2022/02/04 06:33:35;;;;;;;13.40;9.27;;;;;;;6.23;93.42;100229.25;6304268;22;20011;-90
2022/02/04 06:36:03;;;;;;;15.35;10.32;;;;;;;6.23;93.42;100226.63;6305678;22;20038;-89
2022/02/04 06:38:30;;;;;;;17.13;10.80;;;;;;;6.18;93.67;100224.13;6305746;22;20015;-89
2022/02/04 06:40:59;;;;;;;16.42;10.57;;;;;;;6.16;93.02;100191.78;6303952;22;20027;-90
2022/02/04 06:43:26;;;;;;;16.67;10.32;;;;;;;6.42;92.35;100248.81;6303675;22;20532;-89
2022/02/04 06:45:53;;;;;;;16.92;10.70;;;;;;;6.44;92.68;100252.25;6304359;22;20092;-90
2022/02/04 06:48:22;;;;;;;15.68;9.77;;;;;;;6.41;93.12;100252.34;6305000;22;20101;-89
2022/02/04 06:50:50;;;;;;;17.20;10.52;;;;;;;6.25;92.58;100220.41;6304639;22;20042;-90
2022/02/04 06:53:17;;;;;;;14.13;9.80;;;;;;;6.31;92.76;100228.09;6306299;22;20012;-91
2022/02/04 06:55:44;;;;;;;14.70;9.85;;;;;;;6.33;92.67;100228.03;6306228;22;20012;-90
2022/02/04 06:58:12;;;;;;;20.42;10.82;;;;;;;6.42;92.71;100245.31;6306518;22;20371;-90
2022/02/04 07:00:42;;;;;;;14.73;10.10;;;;;;;6.50;92.48;100256.44;6321671;22;20507;-90
2022/02/04 07:03:12;;;;;;;16.02;10.00;;;;;;;6.38;91.88;100241.06;6313223;22;20023;-89
2022/02/04 07:05:51;;;;;;;15.15;10.00;;;;;;;6.58;91.70;100257.06;6335034;22;20080;-90
2022/02/04 07:22:03;;;;;;;15.73;9.48;;;;;;;6.71;90.16;100261.00;6336403;22;20019;-88
2022/02/04 07:24:32;;;;;;;15.75;9.95;;;;;;;6.50;90.34;100214.34;6334540;22;20030;-90
2022/02/04 07:27:00;;;;;;;15.13;9.93;;;;;;;6.51;90.17;100213.44;6336736;22;20036;-90
2022/02/04 07:29:29;;;;;;;15.05;9.45;;;;;;;6.66;89.53;100239.22;6337406;22;20025;-89
2022/02/04 07:32:02;;;;;;;;;;;;;;;6.81;89.34;100261.53;6338545;22;20398;-89
2022/02/04 07:34:45;;;;;;;15.93;10.00;;;;;;;6.39;89.42;100195.44;6338558;22;19997;-89
2022/02/04 07:42:48;;;;;;;13.85;9.73;;;;;;;6.60;89.59;100219.25;6280427;22;20017;-91
2022/02/04 07:45:22;;;;;;;14.38;9.48;;;;;;;6.47;89.28;100207.41;6338923;22;20103;-92
2022/02/04 07:47:56;;;;;;;14.32;10.18;;;;;;;6.41;88.73;100178.69;6311142;22;20021;-90
2022/02/04 07:50:26;;;;;;;15.05;10.25;;;;;;;6.45;89.23;100197.88;6334083;22;20019;-91
2022/02/04 07:52:55;;;;;;;16.05;10.43;;;;;;;6.64;88.88;100228.75;6333315;22;20381;-91
2022/02/04 07:55:25;;;;;;;16.50;10.38;;;;;;;6.43;89.04;100178.66;6333246;22;20011;-89
2022/02/04 07:57:54;;;;;;;14.77;10.30;;;;;;;6.86;88.76;100243.81;6334963;22;20049;-91
2022/02/04 08:00:38;;;;;;;18.05;10.88;;;;;;;6.77;89.10;100233.63;6332868;22;20579;-90
2022/02/04 08:03:33;;;;;;;15.75;10.68;;;;;;;6.83;88.31;100220.25;6312209;22;20033;-91
2022/02/04 08:06:09;;;;;;;14.95;10.13;;;;;;;6.65;88.30;100184.88;6332491;22;20385;-90
2022/02/04 08:08:43;;;;;;;16.17;10.10;;;;;;;6.94;88.48;100247.91;6306230;22;20049;-90
2022/02/04 08:14:09;;;;;;;15.77;10.88;;;;;;;6.94;88.80;100253.16;6335412;22;20007;-91
2022/02/04 08:17:03;;;;;;;16.48;10.20;;;;;;;6.72;88.96;100210.09;6335154;22;20537;-91
2022/02/04 08:22:24;;;;;;;15.90;10.10;;;;;;;6.67;88.77;100175.16;6335926;22;20018;-89
2022/02/04 08:25:22;;;;;;;15.95;9.85;;;;;;;6.87;88.50;100214.81;6307528;22;20452;-90
2022/02/04 08:28:10;;;;;;;16.42;10.00;;;;;;;7.01;88.80;100248.56;6336590;22;20026;-89
2022/02/04 08:36:07;;;;;;;16.45;10.00;;;;;;;7.06;88.90;100229.97;6338224;22;20021;-89
2022/02/04 08:54:33;;;;;;;16.15;9.63;;;;;;;6.98;89.90;100201.28;6335998;22;20417;-91
2022/02/04 08:57:09;;;;;;;13.65;9.80;;;;;;;6.70;90.36;100151.38;6335340;22;20450;-89
2022/02/04 08:59:59;;;;;;;15.48;9.90;;;;;;;6.76;90.46;100152.97;6336398;22;20015;-90
2022/02/04 09:02:34;;;;;;;13.63;9.23;;;;;;;6.71;90.20;100144.34;6309492;22;20018;-89
2022/02/04 09:05:17;;;;;;;18.17;10.15;;;;;;;7.06;90.61;100214.19;6337664;22;20026;-89
2022/02/04 09:07:56;;;;;;;15.93;10.15;;;;;;;7.08;91.13;100217.63;6310693;22;20019;-91
2022/02/04 09:10:28;;;;;;;14.63;9.75;;;;;;;6.90;90.71;100179.66;6335418;22;20022;-91
2022/02/04 09:21:23;;;;;;;;;;;;;;;;;;;;;
2022/02/04 09:24:23;;;;;;;14.10;9.60;;;;;;;6.71;91.91;100170.66;6241364;23;20035;-90
2022/02/04 09:26:54;;;;;;;13.65;9.13;;;;;;;6.77;91.98;100178.34;6239875;23;20012;-90
2022/02/04 09:29:35;;;;;;;13.57;9.75;;;;;;;6.75;92.20;100175.78;6214689;23;20526;-88
2022/02/04 09:32:13;;;;;;;;;;;;;;;6.99;91.66;100203.84;6240525;23;20016;-93
2022/02/04 09:34:43;;;;;;;13.23;9.20;;;;;;;6.54;91.75;100135.28;6243072;22;19923;-90
2022/02/04 09:37:28;;;;;;;13.15;9.27;;;;;;;6.69;91.56;100141.78;6243070;22;20020;-88
2022/02/04 09:40:09;;;;;;;13.45;9.32;;;;;;;6.81;91.58;100166.78;6241011;22;20012;-91
2022/02/04 09:42:42;;;;;;;13.40;9.32;;;;;;;6.75;91.65;100148.59;6311139;22;20106;-89
2022/02/04 09:45:12;;;;;;;14.23;9.57;;;;;;;6.67;91.58;100130.44;6338341;22;20015;-89
2022/02/04 09:47:41;;;;;;;12.45;9.05;;;;;;;7.01;91.06;100186.25;6310378;22;20017;-90
2022/02/04 09:50:14;;;;;;;12.80;9.30;;;;;;;7.02;90.49;100169.53;6308960;22;20425;-91
2022/02/04 10:10:11;;;;;;;;;;;;;;;7.37;89.30;100178.78;6341172;22;20106;-93
2022/02/04 10:12:37;;;;;;;10.30;7.90;;;;;;;7.35;89.16;100167.44;6335027;22;19919;-89
2022/02/04 10:15:35;;;;;;;9.63;7.50;;;;;;;7.35;88.84;100154.25;6338437;22;20027;-88
2022/02/04 10:18:14;;;;;;;12.60;7.93;;;;;;;7.35;88.92;100154.25;6337611;22;20023;-88
2022/02/04 10:20:42;;;;;;;10.95;7.65;;;;;;;7.34;88.53;100134.09;6338707;22;20042;-89
2022/02/04 10:23:10;;;;;;;11.32;7.88;;;;;;;7.27;88.57;100135.25;6338723;22;20038;-90
2022/02/04 10:25:41;;;;;;;9.23;7.18;;;;;;;7.08;88.69;100091.25;6337037;22;20109;-92
2022/02/04 10:28:28;;;;;;;14.15;8.23;;;;;;;7.52;88.16;100161.53;6338591;22;20025;-88
2022/02/04 10:31:03;;;;;;;10.77;7.60;;;;;;;7.49;88.07;100153.75;6339050;22;20022;-89
2022/02/04 10:33:47;;;;;;;9.68;7.22;;;;;;;7.31;88.07;100121.03;6340025;22;20034;-88
2022/02/04 10:36:59;;;;;;;8.35;6.38;;;;;;;7.38;87.86;100124.31;6313593;22;20019;-90
2022/02/04 10:58:53;;;;;;;7.82;5.78;;;;;;;7.69;85.47;100092.38;6339556;22;20038;-91
2022/02/04 11:01:30;;;;;;;7.93;6.38;;;;;;;7.64;86.12;100087.25;6338879;22;20026;-90
2022/02/04 11:04:20;;;;;;;7.50;5.90;;;;;;;7.55;86.43;100078.88;6311946;22;20019;-89
2022/02/04 11:32:21;;;;;;;4.00;3.50;;;;;;;7.58;85.63;100070.81;6337636;22;20094;-91
2022/02/04 11:34:40;;;;;;;4.50;3.63;;;;;;;7.67;85.52;100078.38;6332304;22;20110;-90
2022/02/04 11:51:32;;;;;;;5.68;3.90;;;;;;;7.95;84.48;100062.28;6336291;22;20021;-89
2022/02/04 11:54:41;;;;;;;3.92;2.90;;;;;;;7.90;84.07;100051.94;6336554;22;20033;-89
2022/02/04 11:57:09;;;;;;;6.72;3.67;;;;;;;7.79;84.89;100034.84;6336752;22;20015;-88
2022/02/04 11:59:47;;;;;;;5.40;3.35;;;;;;;7.96;85.04;100045.56;6338137;22;20022;-88
2022/02/04 12:02:26;;;;;;;5.30;3.63;;;;;;;8.06;83.71;100047.72;6335402;22;20015;-87
2022/02/04 12:05:07;;;;;;;4.60;3.05;;;;;;;8.20;82.27;100038.38;6339354;22;20022;-89
2022/02/04 12:07:42;;;;;;;3.90;3.30;;;;;;;8.22;81.62;100016.28;6339975;22;20019;-88
2022/02/04 12:10:21;;;;;;;3.55;3.00;;;;;;;8.34;80.96;100009.69;6337528;22;20018;-90
2022/02/04 12:12:58;;;;;;;4.70;3.00;;;;;;;8.31;80.96;100007.13;6311422;22;20029;-89
2022/02/04 12:15:54;;;;;;;5.57;3.20;;;;;;;8.03;80.28;99952.06;6305162;22;20523;-88
2022/02/04 12:18:23;;;;;;;5.53;3.35;;;;;;;8.16;80.14;99965.59;6343396;22;20102;-89
2022/02/04 12:20:51;;;;;;;4.47;3.50;;;;;;;8.36;80.06;99990.19;6341788;22;20019;-89
2022/02/04 12:23:29;;;;;;;5.25;3.30;;;;;;;8.22;80.25;99974.09;6349106;22;20011;-91
2022/02/04 12:29:27;;;;;;;4.93;3.30;;;;;;;7.83;80.72;99920.47;6342057;22;20015;-89
2022/02/04 12:32:35;;;;;;;4.82;3.50;;;;;;;8.23;80.42;99974.94;6315136;22;20014;-89
2022/02/04 12:35:02;;;;;;;3.42;2.40;;;;;;;8.21;80.83;99977.66;6340894;22;20290;-89
2022/02/04 12:37:29;;;;;;;2.90;2.42;;;;;;;8.14;80.07;99972.72;6340533;22;20057;-89
2022/02/04 12:39:56;;;;;;;2.78;2.22;;;;;;;8.16;78.84;99947.13;6340299;22;20090;-89
2022/02/04 12:42:24;;;;;;;2.70;2.15;;;;;;;8.26;77.94;99933.47;6340819;22;20357;-88
2022/02/04 12:44:52;;;;;;;2.75;2.08;;;;;;;8.28;77.47;99921.06;6340332;22;20026;-88
2022/02/04 12:47:22;;;;;;;4.78;2.22;;;;;;;8.40;77.53;99964.53;6340881;22;20017;-89
2022/02/04 12:49:55;;;;;;;2.83;2.17;;;;;;;8.34;77.66;99952.47;6338698;22;20048;-88
2022/02/04 12:52:29;;;;;;;1.95;1.55;;;;;;;8.09;78.73;99928.09;6338850;22;20102;-89
2022/02/04 12:55:09;;;;;;;5.18;2.30;;;;;;;8.20;78.20;99944.28;6340482;22;20067;-88
2022/02/04 12:57:57;;;;;;;3.22;2.00;;;;;;;8.33;78.36;99939.38;6339571;22;20019;-89
2022/02/04 13:03:25;;;;;;;2.53;1.95;;;;;;;8.34;77.20;99919.97;6340266;22;20501;-89
2022/02/04 13:09:11;;;;;;;2.10;1.70;;;;;;;8.05;77.75;99865.84;6338199;22;20633;-89
2022/02/04 13:11:33;;;;;;;4.32;1.98;;;;;;;8.18;77.82;99889.91;6335177;22;20022;-91
2022/02/04 13:14:37;;;;;;;2.22;1.88;;;;;;;8.06;77.04;99852.59;6337066;22;20094;-88
2022/02/04 13:17:33;;;;;;;1.65;1.48;;;;;;;8.32;76.77;99877.84;6336147;22;20049;-89
2022/02/04 13:20:03;;;;;;;2.00;1.70;;;;;;;8.44;76.69;99894.88;6336922;22;20038;-89
2022/02/04 13:26:31;;;;;;;;;;;;;;;;;;;;;
2022/02/04 13:29:08;;;;;;;2.25;1.70;;;;;;;8.22;76.45;99854.53;6333043;22;20014;-90
2022/02/04 13:32:21;;;;;;;2.05;1.77;;;;;;;8.19;76.66;99841.47;6333437;22;20106;-93
2022/02/04 13:34:52;;;;;;;3.55;1.70;;;;;;;8.34;76.37;99869.84;6310288;22;20323;-87
2022/02/04 13:37:36;;;;;;;;;;;;;;;8.34;76.14;99864.56;6338467;22;20045;-88
2022/02/04 13:47:47;;;;;;;2.20;1.60;;;;;;;7.92;75.80;99802.28;6275233;22;20018;-91
2022/02/04 13:50:25;;;;;;;1.60;1.50;;;;;;;8.22;75.47;99852.75;6341947;22;20011;-90
2022/02/04 13:53:04;;;;;;;1.60;1.50;;;;;;;8.25;75.01;99846.47;6338429;22;20047;-93
2022/02/04 13:55:52;;;;;;;2.63;1.45;;;;;;;8.21;74.91;99850.19;6337916;22;20019;-88
2022/02/04 14:01:13;;;;;;;1.98;1.10;;;;;;;8.17;74.49;99809.94;6336369;22;20037;-89
2022/02/04 14:03:51;;;;;;;1.55;1.30;;;;;;;8.33;74.11;99839.97;6335361;22;20015;-92
2022/02/04 14:06:24;;;;;;;2.15;1.40;;;;;;;8.13;74.78;99807.50;6337303;22;20067;-91
2022/02/04 14:08:57;;;;;;;3.72;1.42;;;;;;;8.25;74.85;99842.06;6335247;22;20022;-89
2022/02/04 14:11:26;;;;;;;;;;;;;;;8.18;75.36;99834.53;6308887;22;20019;-93
2022/02/04 14:14:13;;;;;;;1.58;1.30;;;;;;;7.72;75.33;99773.31;6335563;22;20291;-91
2022/02/04 14:17:03;;;;;;;;;;;;;;;;;;;;;
2022/02/04 14:19:47;;;;;;;4.00;1.40;;;;;;;7.94;76.29;99818.03;6333698;22;20015;-90
2022/02/04 14:22:41;;;;;;;1.60;1.30;;;;;;;8.09;76.41;99841.91;6334777;22;20014;-94
2022/02/04 14:25:18;;;;;;;2.45;1.10;;;;;;;7.90;76.19;99800.63;6336036;22;20093;-90
2022/02/04 14:28:03;;;;;;;2.30;0.93;;;;;;;7.73;75.42;99751.31;6337105;22;20114;-89
2022/02/04 14:30:49;;;;;;;;;;;;;;;;;;;;;
2022/02/04 14:34:14;;;;;;;2.15;0.95;;;;;;;7.65;75.81;99761.34;6336201;22;20521;-90
2022/02/04 14:58:57;;;;;;;2.13;1.00;;;;;;;7.63;77.79;99779.88;6337578;22;20019;-88
2022/02/04 15:02:10;;;;;;;2.35;0.93;;;;;;;7.41;78.54;99742.22;6311022;22;20027;-90
2022/02/04 15:04:47;;;;;;;1.20;0.93;;;;;;;7.44;78.21;99754.41;6309418;22;20101;-90
2022/02/04 15:07:14;;;;;;;0.95;0.82;;;;;;;7.68;78.66;99792.84;6311825;22;20041;-89
2022/02/04 15:09:55;;;;;;;1.00;0.77;;;;;;;7.66;77.73;99763.94;6310931;22;20022;-95
2022/02/04 15:12:28;;;;;;;0.90;0.70;;;;;;;7.52;77.71;99742.63;6312106;22;20019;-90
2022/02/04 15:14:58;;;;;;;1.95;0.95;;;;;;;7.60;77.97;99758.06;6339739;22;20101;-92
2022/02/04 15:17:33;;;;;;;1.40;1.20;;;;;;;7.95;77.83;99796.88;6338551;22;20015;-92
2022/02/04 15:20:25;;;;;;;0.80;0.60;;;;;;;7.61;78.08;99747.47;6339080;22;20026;-93
2022/02/04 15:22:55;;;;;;;;;;;;;;;7.88;78.21;99795.41;6266897;22;20022;-92
2022/02/04 15:26:14;;;;;;;1.77;0.85;;;;;;;7.60;79.65;99743.13;6337814;22;20490;-91
2022/02/04 15:31:58;;;;;;;1.27;0.90;;;;;;;7.24;81.45;99714.00;6340685;22;20384;-90
2022/02/04 15:34:27;;;;;;;1.10;1.00;;;;;;;7.23;82.98;99704.41;6321157;22;20011;-89
2022/02/04 15:37:33;;;;;;;1.67;0.90;;;;;;;7.36;83.08;99733.69;6325110;22;20006;-91
2022/02/04 15:40:46;;;;;;;1.60;0.80;;;;;;;7.30;83.55;99745.34;6321441;22;20026;-92
2022/02/04 15:43:42;;;;;;;1.45;1.00;;;;;;;7.27;83.35;99734.06;6344004;22;20063;-89
2022/02/04 15:46:38;;;;;;;1.30;0.93;;;;;;;7.06;83.29;99706.94;6345134;22;20129;-92
2022/02/04 15:55:09;;;;;;;2.20;0.95;;;;;;;7.33;82.23;99731.19;6343201;22;20014;-91
2022/02/04 16:06:13;;;;;;;0.98;0.98;;;;;;;7.63;82.17;99769.34;6339849;22;20042;-91
2022/02/04 16:08:57;;;;;;;1.63;1.10;;;;;;;7.42;82.32;99727.28;6313839;22;20346;-92
2022/02/04 16:11:45;;;;;;;1.42;0.80;;;;;;;7.49;82.38;99731.34;6341701;22;20018;-93
2022/02/04 16:14:30;;;;;;;;;;;;;;;7.63;82.44;99769.34;6339135;22;20011;-90
2022/02/04 16:17:12;;;;;;;1.10;1.00;;;;;;;7.49;81.61;99713.78;6312396;22;20318;-91
2022/02/04 16:19:53;;;;;;;1.20;1.08;;;;;;;7.66;81.50;99742.84;6340183;22;20026;-89
2022/02/04 16:25:30;;;;;;;2.38;1.10;;;;;;;7.58;81.73;99708.06;6338738;22;20023;-92
2022/02/04 16:31:41;;;;;;;1.65;1.00;;;;;;;7.31;81.63;99677.72;6339462;22;20025;-91
2022/02/04 16:34:14;;;;;;;1.20;0.93;;;;;;;7.35;81.49;99690.69;6340865;22;20094;-92
2022/02/04 16:37:03;;;;;;;1.85;0.90;;;;;;;7.47;81.69;99722.66;6341434;22;20018;-96
2022/02/04 16:43:20;;;;;;;2.25;1.08;;;;;;;7.34;81.35;99688.97;6327140;22;20014;-90
2022/02/04 16:46:01;;;;;;;3.03;1.10;;;;;;;7.67;82.12;99767.41;6340183;22;20325;-92
2022/02/04 16:48:45;;;;;;;1.20;1.00;;;;;;;7.62;81.84;99732.50;6320705;22;20026;-93
2022/02/04 16:51:24;;;;;;;1.05;0.98;;;;;;;7.38;81.05;99676.53;6316690;22;20519;-91
2022/02/04 16:53:56;;;;;;;1.55;1.10;;;;;;;7.61;80.94;99714.97;6320381;22;20386;-92
2022/02/04 16:56:27;;;;;;;2.40;0.90;;;;;;;7.53;80.94;99690.78;6348205;22;20029;-92
2022/02/04 16:58:59;;;;;;;1.55;0.90;;;;;;;7.82;81.35;99750.91;6348235;22;20015;-91
2022/02/04 17:01:35;;;;;;;1.48;0.80;;;;;;;7.53;81.71;99694.28;6349155;22;20027;-93
2022/02/04 17:04:18;;;;;;;1.48;0.70;;;;;;;7.81;81.85;99738.66;6318629;22;20023;-92
2022/02/04 17:06:56;;;;;;;;;;;;;;;7.83;81.89;99742.09;6347083;22;20019;-92
2022/02/04 17:09:37;;;;;;;2.53;0.82;;;;;;;7.58;82.83;99715.13;6322030;22;19928;-92
2022/02/04 17:12:11;;;;;;;0.82;0.80;;;;;;;7.34;83.07;99669.69;6327818;22;20029;-92
2022/02/04 17:14:59;;;;;;;1.98;1.23;;;;;;;7.50;83.81;99718.13;6351211;22;20019;-91
2022/02/04 17:17:50;;;;;;;1.27;0.98;;;;;;;7.72;83.96;99750.47;6214753;23;20547;-93
2022/02/04 17:20:21;;;;;;;0.85;0.77;;;;;;;7.65;83.95;99745.56;6176235;23;20099;-92
2022/02/04 17:26:17;;;;;;;1.15;1.05;;;;;;;7.67;84.79;99757.75;6216501;23;20012;-93
2022/02/04 17:28:54;;;;;;;1.25;1.10;;;;;;;7.33;84.50;99689.91;6215099;23;20027;-93
2022/02/04 17:31:32;;;;;;;;;;;;;;;7.69;84.79;99747.13;6220366;23;20164;-96
2022/02/04 17:33:59;;;;;;;1.48;1.00;;;;;;;7.40;85.05;99699.22;6219939;23;20336;-92
2022/02/04 17:36:30;;;;;;;1.75;0.90;;;;;;;7.57;85.42;99729.22;6225337;23;20100;-95
2022/02/04 17:39:01;;;;;;;5.00;1.10;;;;;;;7.45;85.35;99712.19;6222287;23;20084;-94
2022/02/04 17:41:41;;;;;;;1.10;1.00;;;;;;;7.44;85.77;99705.22;6223168;23;20028;-94
2022/02/04 17:44:44;;;;;;;1.48;0.90;;;;;;;7.64;85.48;99735.94;6233696;23;20068;-94
2022/02/04 17:47:28;;;;;;;2.53;0.90;;;;;;;7.35;86.33;99716.16;6229201;22;21114;-90
2022/02/04 17:50:27;;;;;;;1.38;0.90;;;;;;;7.53;87.51;99746.09;6261248;22;20024;-95
2022/02/04 17:57:35;;;;;;;1.88;0.80;;;;;;;7.05;88.80;99686.78;6193008;23;20021;-93
2022/02/04 18:01:11;;;;;;;0.88;0.80;;;;;;;7.26;88.34;99717.41;6266025;22;20024;-91
2022/02/04 18:07:08;;;;;;;1.25;0.80;;;;;;;7.10;88.30;99684.78;6288932;22;20019;-94
2022/02/04 18:09:51;;;;;;;1.50;1.02;;;;;;;7.30;88.29;99711.09;6290219;22;20022;-93
2022/02/04 18:12:53;;;;;;;;;;;;;;;;;;;;;
2022/02/04 18:15:46;;;;;;;0.75;0.70;;;;;;;7.32;88.14;99711.03;6263174;22;20034;-93
2022/02/04 18:19:10;;;;;;;2.28;0.77;;;;;;;7.52;88.26;99747.88;6285457;22;20019;-94
2022/02/04 18:22:04;;;;;;;1.15;1.00;;;;;;;7.35;88.49;99713.53;6244686;22;20545;-93
2022/02/04 18:25:50;;;;;;;;;;;;;;;;;;;;;
2022/02/04 18:28:34;;;;;;;2.47;1.00;;;;;;;7.16;89.65;99710.84;6281158;22;20016;-90
2022/02/04 18:31:20;;;;;;;2.80;1.15;;;;;;;7.34;91.44;99757.47;6257453;22;20016;-91
2022/02/04 18:33:47;;;;;;;1.80;1.00;;;;;;;7.27;91.82;99734.94;6279838;22;20019;-93
2022/02/04 18:36:55;;;;;;;2.17;1.30;;;;;;;6.93;93.11;99700.44;6278488;22;20024;-92
2022/02/04 18:46:28;;;;;;;2.80;1.52;;;;;;;6.83;99.22;99744.75;6282577;22;20098;-91
2022/02/04 18:49:26;;;;;;;2.35;1.63;;;;;;;6.62;100.00;99725.44;6280513;22;20016;-91
2022/02/04 18:52:20;;;;;;;1.50;1.40;;;;;;;6.61;100.00;99717.63;6283386;22;20042;-92
2022/02/04 18:57:25;;;;;;;2.05;1.80;;;;;;;6.36;100.00;99707.25;6281446;22;20093;-94
2022/02/04 19:00:25;;;;;;;2.55;2.17;;;;;;;6.64;100.00;99784.09;6282054;22;20019;-91
2022/02/04 19:03:49;;;;;;;4.03;2.30;;;;;;;6.42;100.00;99738.56;6243169;22;20012;-91
2022/02/04 19:06:37;;;;;;;4.65;2.20;;;;;;;6.60;100.00;99773.78;6260483;22;20117;-93